Terminal Aerodrome Forecast
Issued by NWS

Home | Current Version | Previous Version | Text Only | Print | Product List | Glossary Off
Versions: 1 2 3 4 5 6 7 8 9 10 11 12 13 14 15 16 17 18 19 20 21 22

000
FTUS42 KMHX 230500
TAFOAJ
TAF
KOAJ 230521Z 2306/2406 00000KT P6SM OVC250
     FM231500 12008KT P6SM VCSH SCT020 BKN050
     FM232100 13015G22KT 3SM -SHRA BR VCTS OVC020CB
     FM240100 10015G22KT 5SM -TSRA OVC015CB
      AMD LTD TO CLD VIS AND WIND=

USA.gov is the U.S. government's official web portal to all federal, state and local government web resources and services.